createdAt,value
2022-09-22T00:01:37.556Z,95033.28
2022-09-22T00:04:07.936Z,95014.66
2022-09-22T00:06:38.875Z,95054.09
2022-09-22T00:09:09.586Z,95009.22
2022-09-22T00:11:40.689Z,95055.53
2022-09-22T00:14:10.895Z,95048.47
2022-09-22T00:16:42.106Z,95048.03
2022-09-22T00:19:13.681Z,95029.88
2022-09-22T00:21:41.586Z,94984.38
2022-09-22T00:24:09.951Z,94993.28
2022-09-22T00:26:40.138Z,94999.56
2022-09-22T00:29:10.397Z,94978.13
2022-09-22T00:31:40.722Z,94968.03
2022-09-22T00:34:13.524Z,94956.28
2022-09-22T00:36:41.548Z,94987.25
2022-09-22T00:39:09.740Z,94940.16
2022-09-22T00:41:41.990Z,94970.72
2022-09-22T00:44:32.908Z,94976.75
2022-09-22T00:47:04.645Z,94962.03
2022-09-22T00:49:38.138Z,94962.44
2022-09-22T00:52:06.751Z,94957.38
2022-09-22T00:54:35.801Z,94944.47
2022-09-22T00:57:09.789Z,94944.84
2022-09-22T00:59:38.459Z,94939.78
2022-09-22T01:02:07.226Z,94937.38
2022-09-22T01:04:35.883Z,94905.44
2022-09-22T01:07:27.156Z,94942.63
2022-09-22T01:09:56.520Z,94960.81
2022-09-22T01:12:27.973Z,94960.81
2022-09-22T01:15:19.555Z,94937.34
2022-09-22T01:17:59.313Z,94956.78
2022-09-22T01:21:06.530Z,94981.41
2022-09-22T01:24:03.092Z,94948.66
2022-09-22T01:27:12.181Z,94961.63
2022-09-22T01:30:07.319Z,94978.16
2022-09-22T01:32:44.125Z,94966.06
2022-09-22T01:35:20.895Z,94968.69
2022-09-22T01:37:59.775Z,94979.38
2022-09-22T01:40:34.670Z,94963.19
2022-09-22T01:43:10.611Z,94948.66
2022-09-22T01:45:43.146Z,94936.16
2022-09-22T01:48:15.407Z,94955.97
2022-09-22T01:50:47.582Z,94925.84
2022-09-22T01:53:20.043Z,94919.16
2022-09-22T01:55:56.363Z,94944.22
2022-09-22T01:58:30.630Z,94941.59
2022-09-22T02:01:04.489Z,94918.38
2022-09-22T02:03:39.066Z,94941.59
2022-09-22T02:06:11.862Z,94902.63
2022-09-22T02:08:46.262Z,94917.59
2022-09-22T02:11:16.732Z,94909.50
2022-09-22T02:13:47.748Z,94911.53
2022-09-22T02:16:19.823Z,94898.63
2022-09-22T02:18:51.999Z,94875.38
2022-09-22T02:21:21.985Z,94897.81
2022-09-22T02:23:50.398Z,94862.25
2022-09-22T02:26:24.075Z,94868.38
2022-09-22T02:28:55.060Z,94838.06
2022-09-22T02:31:29.508Z,94806.53
2022-09-22T02:33:57.755Z,94799.94
2022-09-22T02:36:44.554Z,94808.00
2022-09-22T02:39:18.633Z,94783.16
2022-09-22T02:41:58.649Z,94792.91
2022-09-22T02:44:32.689Z,94797.53
2022-09-22T02:47:08.894Z,94800.97
2022-09-22T02:49:37.752Z,94800.16
2022-09-22T02:52:10.292Z,94779.81
2022-09-22T02:54:39.582Z,94770.72
2022-09-22T02:57:07.823Z,94763.03
2022-09-22T02:59:35.786Z,94728.75
2022-09-22T03:02:08.570Z,94757.03
2022-09-22T03:04:36.598Z,94743.47
2022-09-22T03:07:05.083Z,94718.47
2022-09-22T03:09:44.209Z,94708.19
2022-09-22T03:13:14.577Z,94667.44
2022-09-22T03:15:36.003Z,94727.53
2022-09-22T03:18:05.734Z,94685.56
2022-09-22T03:20:33.599Z,94724.53
2022-09-22T03:23:04.263Z,94709.81
2022-09-22T03:25:32.681Z,94661.41
2022-09-22T03:28:00.754Z,94672.09
2022-09-22T03:30:28.899Z,94707.22
2022-09-22T03:32:58.815Z,94697.31
2022-09-22T03:35:28.328Z,94692.91
2022-09-22T03:37:56.352Z,94684.38
2022-09-22T03:40:24.521Z,94697.13
2022-09-22T03:42:52.561Z,94690.47
2022-09-22T03:45:20.589Z,94665.44
2022-09-22T03:47:48.546Z,94687.44
2022-09-22T03:50:16.555Z,94672.94
2022-09-22T03:52:46.211Z,94627.19
2022-09-22T03:55:14.406Z,94645.91
2022-09-22T03:57:43.852Z,94637.25
2022-09-22T04:00:14.222Z,94628.00
2022-09-22T04:02:42.439Z,94631.00
2022-09-22T04:05:11.363Z,94624.78
2022-09-22T04:07:39.452Z,94617.53
2022-09-22T04:10:09.603Z,94600.19
2022-09-22T04:12:39.615Z,94601.19
2022-09-22T04:15:08.568Z,94608.47
2022-09-22T04:17:37.231Z,94614.31
2022-09-22T04:20:07.290Z,94609.47
2022-09-22T04:22:35.765Z,94588.13
2022-09-22T04:25:03.901Z,94586.91
2022-09-22T04:27:33.492Z,94545.38
2022-09-22T04:30:02.279Z,94566.56
2022-09-22T04:32:30.396Z,94573.63
2022-09-22T04:34:58.490Z,94542.19
2022-09-22T04:37:26.637Z,94578.84
2022-09-22T04:39:55.606Z,94540.34
2022-09-22T04:42:23.754Z,94584.91
2022-09-22T04:44:53.060Z,94592.34
2022-09-22T04:47:20.900Z,94611.06
2022-09-22T04:49:48.805Z,94615.09
2022-09-22T04:52:16.612Z,94622.75
2022-09-22T04:54:47.041Z,94611.47
2022-09-22T04:57:19.684Z,94636.25
2022-09-22T04:59:49.107Z,94638.25
2022-09-22T05:02:19.222Z,94641.66
2022-09-22T05:04:47.801Z,94664.44
2022-09-22T05:07:16.239Z,94677.56
2022-09-22T05:09:44.346Z,94680.41
2022-09-22T05:12:12.419Z,94664.63
2022-09-22T05:14:40.766Z,94676.31
2022-09-22T05:17:09.922Z,94653.34
2022-09-22T05:19:39.614Z,94708.19
2022-09-22T05:22:07.738Z,94727.75
2022-09-22T05:24:35.611Z,94734.78
2022-09-22T05:27:06.142Z,94794.69
2022-09-22T05:29:34.308Z,94795.25
2022-09-22T05:32:02.698Z,94855.38
2022-09-22T05:34:31.309Z,94917.91
2022-09-22T05:37:00.708Z,94995.84
2022-09-22T05:39:28.966Z,95033.25
2022-09-22T05:41:57.008Z,95114.66
2022-09-22T05:44:25.279Z,95208.81
2022-09-22T05:46:53.258Z,95286.47
2022-09-22T05:49:21.574Z,95401.31
2022-09-22T05:51:52.222Z,95626.56
2022-09-22T05:54:23.494Z,95819.56
2022-09-22T05:56:51.828Z,96089.03
2022-09-22T05:59:19.993Z,96305.47
2022-09-22T06:01:48.730Z,96477.72
2022-09-22T06:04:16.953Z,96595.88
2022-09-22T06:06:45.161Z,96626.94
2022-09-22T06:09:16.472Z,96647.59
2022-09-22T06:11:46.035Z,96575.66
2022-09-22T06:14:14.035Z,96614.63
2022-09-22T06:16:44.952Z,96614.63
2022-09-22T06:19:13.013Z,96557.81
2022-09-22T06:21:41.090Z,96579.13
2022-09-22T06:24:09.094Z,96588.16
2022-09-22T06:26:37.107Z,96635.41
2022-09-22T06:29:10.923Z,96670.47
2022-09-22T06:31:39.984Z,96779.63
2022-09-22T06:34:08.500Z,96932.97
2022-09-22T06:36:36.640Z,96991.72
2022-09-22T06:39:05.735Z,97084.09
2022-09-22T06:41:34.779Z,97131.00
2022-09-22T06:44:03.425Z,97257.66
2022-09-22T06:46:35.358Z,97323.69
2022-09-22T06:49:03.316Z,97462.19
2022-09-22T06:51:32.924Z,97626.34
2022-09-22T06:54:02.232Z,97689.16
2022-09-22T06:56:30.764Z,97871.38
2022-09-22T06:59:10.026Z,97999.13
2022-09-22T07:01:41.086Z,98184.25
2022-09-22T07:04:09.860Z,98352.91
2022-09-22T07:06:40.695Z,98595.47
2022-09-22T07:09:09.541Z,98896.25
2022-09-22T07:11:40.132Z,99314.91
2022-09-22T07:14:10.385Z,99649.03
2022-09-22T07:16:40.856Z,100111.44
2022-09-22T07:19:09.060Z,100420.94
2022-09-22T07:21:38.385Z,100686.72
2022-09-22T07:24:08.866Z,100867.72
2022-09-22T07:26:38.666Z,100865.19
2022-09-22T07:29:11.607Z,100804.13
2022-09-22T07:31:42.033Z,100842.00
2022-09-22T07:34:10.741Z,100913.00
2022-09-22T07:36:39.181Z,100660.16
2022-09-22T07:39:10.463Z,100595.91
2022-09-22T07:41:41.855Z,100504.31
2022-09-22T07:44:29.027Z,100394.72
2022-09-22T07:46:58.971Z,100212.06
2022-09-22T07:49:28.520Z,100099.16
2022-09-22T07:51:57.276Z,100168.97
2022-09-22T07:54:26.924Z,100132.09
2022-09-22T07:56:58.747Z,100104.47
2022-09-22T07:59:27.713Z,100194.91
2022-09-22T08:01:55.871Z,100334.81
2022-09-22T08:04:27.091Z,100445.53
2022-09-22T08:06:56.442Z,100603.25
2022-09-22T08:09:26.078Z,100522.53
2022-09-22T08:11:55.267Z,100449.75
2022-09-22T08:14:24.102Z,100821.25
2022-09-22T08:16:53.662Z,100890.63
2022-09-22T08:19:25.478Z,101036.75
2022-09-22T08:21:57.754Z,101129.47
2022-09-22T08:24:25.675Z,101594.16
2022-09-22T08:27:07.632Z,101572.84
2022-09-22T08:29:35.858Z,101744.31
2022-09-22T08:32:19.735Z,101720.06
2022-09-22T08:34:50.476Z,101740.25
2022-09-22T08:37:18.426Z,101759.56
2022-09-22T08:39:46.529Z,101695.25
2022-09-22T08:42:20.911Z,101741.09
2022-09-22T08:44:57.811Z,101865.97
2022-09-22T08:47:54.736Z,101613.53
2022-09-22T08:50:49.541Z,101359.53
2022-09-22T08:53:21.603Z,101241.94
2022-09-22T08:56:00.689Z,101300.16
2022-09-22T08:58:40.510Z,101093.09
2022-09-22T09:01:21.752Z,100986.09
2022-09-22T09:04:02.595Z,101094.63
2022-09-22T09:06:40.209Z,101271.84
2022-09-22T09:09:33.864Z,101320.44
2022-09-22T09:12:13.809Z,101575.72
2022-09-22T09:15:06.282Z,101654.50
2022-09-22T09:17:37.521Z,101493.94
2022-09-22T09:20:18.097Z,101371.91
2022-09-22T09:22:52.921Z,101330.06
2022-09-22T09:25:37.760Z,101396.84
2022-09-22T09:28:08.500Z,101424.50
2022-09-22T09:30:44.831Z,101607.50
2022-09-22T09:33:23.500Z,101890.47
2022-09-22T09:35:53.703Z,102108.97
2022-09-22T09:38:29.734Z,102241.63
2022-09-22T09:41:10.049Z,102383.03
2022-09-22T09:43:43.060Z,102458.78
2022-09-22T09:46:31.704Z,102761.75
2022-09-22T09:49:09.154Z,102923.31
2022-09-22T09:51:40.565Z,102251.22
2022-09-22T09:54:16.908Z,102363.34
2022-09-22T09:57:09.660Z,102451.72
2022-09-22T10:00:05.337Z,102848.47
2022-09-22T10:02:36.640Z,103283.28
2022-09-22T10:05:08.763Z,103563.41
2022-09-22T10:07:44.111Z,104312.25
2022-09-22T10:10:34.259Z,104880.84
2022-09-22T10:13:26.300Z,105591.75
2022-09-22T10:16:18.467Z,106087.22
2022-09-22T10:18:46.901Z,106466.34
2022-09-22T10:21:16.761Z,105780.03
2022-09-22T10:23:45.638Z,105040.97
2022-09-22T10:26:21.740Z,104891.13
2022-09-22T10:29:09.338Z,104362.13
2022-09-22T10:31:38.583Z,104376.19
2022-09-22T10:34:08.249Z,104268.06
2022-09-22T10:36:44.716Z,104642.34
2022-09-22T10:39:18.708Z,104324.88
2022-09-22T10:41:49.760Z,103709.53
2022-09-22T10:44:37.996Z,103736.38
2022-09-22T10:47:33.379Z,103413.56
2022-09-22T10:50:28.691Z,103422.09
2022-09-22T10:53:05.825Z,103004.06
2022-09-22T10:55:36.914Z,102345.81
2022-09-22T10:58:28.697Z,101721.75
2022-09-22T11:01:12.625Z,101437.31
2022-09-22T11:04:17.488Z,101202.00
2022-09-22T11:07:25.450Z,100965.53
2022-09-22T11:10:31.728Z,100746.81
2022-09-22T11:13:06.802Z,100502.78
2022-09-22T11:15:55.964Z,100498.41
2022-09-22T11:18:43.408Z,100386.53
2022-09-22T11:21:21.971Z,100264.00
2022-09-22T11:24:23.838Z,100242.13
2022-09-22T11:26:53.934Z,100290.91
2022-09-22T11:30:01.232Z,100269.91
2022-09-22T11:32:55.696Z,100240.44
2022-09-22T11:35:55.450Z,100262.00
2022-09-22T11:38:46.448Z,100163.97
2022-09-22T11:41:29.406Z,100180.53
2022-09-22T11:44:15.042Z,100124.75
2022-09-22T11:47:01.174Z,100171.25
2022-09-22T11:49:47.461Z,100241.34
2022-09-22T11:52:30.265Z,100462.50
2022-09-22T11:55:15.137Z,100615.00
2022-09-22T11:57:48.528Z,100725.47
2022-09-22T12:00:19.388Z,100898.31
2022-09-22T12:03:01.808Z,100983.63
2022-09-22T12:05:39.419Z,101137.25
2022-09-22T12:08:13.202Z,101195.75
2022-09-22T12:10:44.665Z,101068.69
2022-09-22T12:13:16.650Z,100945.72
2022-09-22T12:15:58.857Z,100845.88
2022-09-22T12:18:35.669Z,100955.38
2022-09-22T12:21:16.518Z,101033.47
2022-09-22T12:23:51.278Z,101079.63
2022-09-22T12:26:28.710Z,101177.31
2022-09-22T12:28:58.785Z,101177.59
2022-09-22T12:31:36.167Z,101200.00
2022-09-22T12:34:07.184Z,101266.56
2022-09-22T12:36:39.609Z,101251.56
2022-09-22T12:39:10.046Z,101204.53
2022-09-22T12:41:50.110Z,101106.78
2022-09-22T12:44:24.184Z,101096.63
2022-09-22T12:46:53.285Z,101150.53
2022-09-22T12:49:23.432Z,101248.00
2022-09-22T12:51:53.335Z,101219.25
2022-09-22T12:54:48.326Z,101077.66
2022-09-22T12:57:26.627Z,100976.16
2022-09-22T13:00:32.115Z,100893.34
2022-09-22T13:03:02.637Z,100824.13
2022-09-22T13:05:46.775Z,100923.94
2022-09-22T13:08:47.061Z,100990.72
2022-09-22T13:11:16.625Z,100936.91
2022-09-22T13:13:46.848Z,101021.25
2022-09-22T13:16:38.946Z,101112.16
2022-09-22T13:19:14.861Z,101122.38
2022-09-22T13:21:42.888Z,101220.38
2022-09-22T13:24:25.116Z,101233.84
2022-09-22T13:27:05.947Z,101207.50
2022-09-22T13:29:34.535Z,101143.91
2022-09-22T13:32:18.717Z,101082.16
2022-09-22T13:34:47.016Z,100977.16
2022-09-22T13:37:20.229Z,100867.88
2022-09-22T13:39:50.502Z,100808.22
2022-09-22T13:42:23.453Z,100894.63
2022-09-22T13:45:01.223Z,100990.97
2022-09-22T13:47:29.969Z,101054.94
2022-09-22T13:50:04.451Z,101037.41
2022-09-22T13:52:35.636Z,101068.41
2022-09-22T13:55:10.167Z,101131.44
2022-09-22T13:57:40.393Z,101257.22
2022-09-22T14:00:17.678Z,101399.31
2022-09-22T14:02:46.363Z,101515.91
2022-09-22T14:05:20.471Z,101780.25
2022-09-22T14:08:10.715Z,102058.75
2022-09-22T14:10:38.220Z,102276.06
2022-09-22T14:13:44.407Z,102397.94
2022-09-22T14:16:21.255Z,102222.47
2022-09-22T14:18:53.337Z,102221.22
2022-09-22T14:21:22.547Z,102302.00
2022-09-22T14:23:52.905Z,102230.94
2022-09-22T14:26:33.674Z,102095.03
2022-09-22T14:29:15.559Z,102414.53
2022-09-22T14:31:47.258Z,103251.44
2022-09-22T14:34:21.075Z,103662.34
2022-09-22T14:36:52.293Z,103286.22
2022-09-22T14:39:31.319Z,102898.53
2022-09-22T14:42:09.382Z,103069.31
2022-09-22T14:44:44.230Z,104026.91
2022-09-22T14:47:27.654Z,105050.84
2022-09-22T14:50:12.055Z,105456.50
2022-09-22T14:52:47.367Z,105590.56
2022-09-22T14:55:18.153Z,106352.75
2022-09-22T14:57:50.057Z,106154.59
2022-09-22T15:00:37.966Z,105133.16
2022-09-22T15:03:16.632Z,103928.03
2022-09-22T15:05:46.088Z,103185.56
2022-09-22T15:08:18.166Z,102619.56
2022-09-22T15:10:54.317Z,102136.06
2022-09-22T15:13:30.699Z,101983.00
2022-09-22T15:16:00.176Z,101779.41
2022-09-22T15:18:30.743Z,101476.47
2022-09-22T15:21:05.618Z,101197.69
2022-09-22T15:23:43.869Z,100942.56
2022-09-22T15:26:25.602Z,100687.41
2022-09-22T15:28:55.148Z,100502.56
2022-09-22T15:31:26.864Z,100304.34
2022-09-22T15:33:56.192Z,100147.03
2022-09-22T15:36:25.754Z,100076.47
2022-09-22T15:39:00.591Z,99933.44
2022-09-22T15:41:28.778Z,99801.72
2022-09-22T15:43:56.968Z,99708.69
2022-09-22T15:46:34.197Z,99630.59
2022-09-22T15:49:05.623Z,99583.59
2022-09-22T15:51:33.644Z,99488.25
2022-09-22T15:54:01.754Z,99457.69
2022-09-22T15:56:31.369Z,99357.78
2022-09-22T15:59:01.218Z,99291.94
2022-09-22T16:01:30.526Z,99232.75
2022-09-22T16:04:04.742Z,99144.19
2022-09-22T16:06:32.755Z,99120.13
2022-09-22T16:09:00.748Z,99053.00
2022-09-22T16:11:31.985Z,98994.56
2022-09-22T16:14:03.771Z,98930.78
2022-09-22T16:16:35.670Z,98832.69
2022-09-22T16:19:03.890Z,98774.97
2022-09-22T16:21:33.248Z,98671.66
2022-09-22T16:24:03.962Z,98653.34
2022-09-22T16:26:33.637Z,98563.41
2022-09-22T16:29:01.982Z,98540.91
2022-09-22T16:31:30.514Z,98473.19
2022-09-22T16:34:02.093Z,98427.22
2022-09-22T16:36:35.376Z,98402.25
2022-09-22T16:39:04.617Z,98300.19
2022-09-22T16:41:34.082Z,98261.56
2022-09-22T16:44:03.195Z,98213.53
2022-09-22T16:46:34.354Z,98170.16
2022-09-22T16:49:05.875Z,98122.66
2022-09-22T16:51:35.847Z,98021.59
2022-09-22T16:54:05.572Z,97968.69
2022-09-22T16:56:35.539Z,97964.31
2022-09-22T16:59:05.539Z,97922.16
2022-09-22T17:01:36.622Z,97877.03
2022-09-22T17:04:08.114Z,97814.72
2022-09-22T17:06:38.326Z,97803.41
2022-09-22T17:09:07.699Z,97773.03
2022-09-22T17:11:38.067Z,97727.44
2022-09-22T17:14:12.121Z,97701.78
2022-09-22T17:16:42.080Z,97672.44
2022-09-22T17:19:13.086Z,97592.03
2022-09-22T17:21:41.186Z,97591.63
2022-09-22T17:24:10.136Z,97577.88
2022-09-22T17:26:41.400Z,97493.91
2022-09-22T17:29:10.937Z,97484.06
2022-09-22T17:31:41.696Z,97412.66
2022-09-22T17:34:12.053Z,97418.84
2022-09-22T17:36:41.391Z,97397.66
2022-09-22T17:39:10.764Z,97382.13
2022-09-22T17:41:47.065Z,97348.56
2022-09-22T17:44:20.907Z,97351.56
2022-09-22T17:47:07.227Z,97341.59
2022-09-22T17:49:54.764Z,97275.78
2022-09-22T17:52:40.147Z,97258.91
2022-09-22T17:55:14.228Z,97259.47
2022-09-22T17:57:43.766Z,97241.63
2022-09-22T18:00:14.208Z,97214.50
2022-09-22T18:02:42.456Z,97191.06
2022-09-22T18:05:14.133Z,97157.34
2022-09-22T18:07:42.350Z,97136.72
2022-09-22T18:10:18.045Z,97096.66
2022-09-22T18:12:46.055Z,97104.09
2022-09-22T18:15:17.138Z,97068.66
2022-09-22T18:17:46.067Z,97046.09
2022-09-22T18:20:18.177Z,97075.16
2022-09-22T18:22:48.876Z,97025.75
2022-09-22T18:25:19.396Z,97066.53
2022-09-22T18:27:48.627Z,96999.72
2022-09-22T18:30:23.169Z,97042.75
2022-09-22T18:32:51.987Z,97034.19
2022-09-22T18:35:21.801Z,97007.53
2022-09-22T18:37:51.240Z,96994.09
2022-09-22T18:40:19.645Z,96966.59
2022-09-22T18:42:47.517Z,96992.91
2022-09-22T18:45:15.458Z,97028.25
2022-09-22T18:47:44.317Z,97017.00
2022-09-22T18:50:13.090Z,96998.56
2022-09-22T18:52:46.765Z,96973.91
2022-09-22T18:55:17.351Z,96991.00
2022-09-22T18:57:47.525Z,96990.47
2022-09-22T19:00:16.216Z,96992.81
2022-09-22T19:02:44.267Z,97015.19
2022-09-22T19:05:12.465Z,97016.28
2022-09-22T19:07:43.617Z,97051.34
2022-09-22T19:10:16.225Z,97096.59
2022-09-22T19:12:44.209Z,97123.38
2022-09-22T19:15:15.280Z,97134.59
2022-09-22T19:17:44.885Z,97138.06
2022-09-22T19:20:15.231Z,97170.78
2022-09-22T19:22:43.127Z,97238.81
2022-09-22T19:25:11.675Z,97279.38
2022-09-22T19:27:41.134Z,97343.78
2022-09-22T19:30:12.752Z,97402.50
2022-09-22T19:32:41.473Z,97458.16
2022-09-22T19:35:09.987Z,97479.59
2022-09-22T19:37:39.648Z,97471.16
2022-09-22T19:40:10.930Z,97397.69
2022-09-22T19:42:40.637Z,97422.19
2022-09-22T19:45:09.430Z,97469.16
2022-09-22T19:47:37.527Z,97489.03
2022-09-22T19:50:06.670Z,97535.13
2022-09-22T19:52:38.254Z,97588.69
2022-09-22T19:55:07.925Z,97637.03
2022-09-22T19:57:41.211Z,97637.69
2022-09-22T20:00:13.387Z,97616.16
2022-09-22T20:02:42.182Z,97567.34
2022-09-22T20:05:19.226Z,97493.28
2022-09-22T20:07:47.269Z,97516.47
2022-09-22T20:10:17.129Z,97512.72
2022-09-22T20:12:45.161Z,97491.03
2022-09-22T20:15:15.177Z,97465.69
2022-09-22T20:17:46.221Z,97445.53
2022-09-22T20:20:15.694Z,97417.88
2022-09-22T20:22:45.417Z,97413.94
2022-09-22T20:25:23.131Z,97394.81
2022-09-22T20:27:51.418Z,97405.97
2022-09-22T20:30:21.177Z,97403.69
2022-09-22T20:32:51.390Z,97429.50
2022-09-22T20:35:22.014Z,97435.44
2022-09-22T20:37:51.631Z,97458.63
2022-09-22T20:40:23.173Z,97494.69
2022-09-22T20:42:54.331Z,97525.44
2022-09-22T20:45:24.838Z,97546.31
2022-09-22T20:47:53.075Z,97549.78
2022-09-22T20:50:21.636Z,97537.13
2022-09-22T20:52:50.617Z,97585.44
2022-09-22T20:55:18.869Z,97574.50
2022-09-22T20:57:47.084Z,97587.75
2022-09-22T21:00:16.378Z,97595.88
2022-09-22T21:02:45.880Z,97597.00
2022-09-22T21:05:13.981Z,97571.50
2022-09-22T21:07:41.984Z,97557.28
2022-09-22T21:10:28.154Z,97536.41
2022-09-22T21:12:56.603Z,97526.16
2022-09-22T21:15:24.670Z,97513.91
2022-09-22T21:17:54.343Z,97510.78
2022-09-22T21:20:23.253Z,97514.72
2022-09-22T21:22:52.727Z,97513.25
2022-09-22T21:25:20.847Z,97503.38
2022-09-22T21:27:48.840Z,97542.53
2022-09-22T21:30:16.860Z,97535.75
2022-09-22T21:32:45.104Z,97525.22
2022-09-22T21:35:16.788Z,97527.88
2022-09-22T21:37:45.964Z,97559.94
2022-09-22T21:40:14.489Z,97571.84
2022-09-22T21:42:45.024Z,97569.19
2022-09-22T21:45:13.119Z,97576.16
2022-09-22T21:47:41.189Z,97550.72
2022-09-22T21:50:10.235Z,97568.28
2022-09-22T21:52:39.769Z,97629.47
2022-09-22T21:55:08.814Z,97641.38
2022-09-22T21:57:36.802Z,97667.56
2022-09-22T22:00:07.758Z,97686.47
2022-09-22T22:03:01.908Z,97666.69
2022-09-22T22:05:31.080Z,97699.13
2022-09-22T22:08:00.646Z,97734.88
2022-09-22T22:10:28.780Z,97745.59
2022-09-22T22:12:57.072Z,97757.88
2022-09-22T22:15:25.274Z,97740.34
2022-09-22T22:17:53.960Z,97775.75
2022-09-22T22:20:21.984Z,97810.41
2022-09-22T22:22:50.034Z,97836.31
2022-09-22T22:25:23.783Z,97844.28
2022-09-22T22:27:51.936Z,97898.34
2022-09-22T22:30:19.943Z,97941.97
2022-09-22T22:32:50.785Z,97990.41
2022-09-22T22:35:20.142Z,97977.34
2022-09-22T22:37:48.221Z,98019.34
2022-09-22T22:40:18.328Z,98048.34
2022-09-22T22:42:48.024Z,98028.31
2022-09-22T22:45:16.220Z,98052.50
2022-09-22T22:47:44.265Z,98063.44
2022-09-22T22:50:12.265Z,98088.03
2022-09-22T22:52:41.428Z,98069.94
2022-09-22T22:55:10.718Z,98069.25
2022-09-22T22:57:38.616Z,98072.91
2022-09-22T23:00:10.152Z,98084.88
2022-09-22T23:02:38.725Z,98073.09
2022-09-22T23:05:07.788Z,98077.91
2022-09-22T23:07:36.043Z,98085.88
2022-09-22T23:10:07.355Z,98067.81
2022-09-22T23:12:36.283Z,98079.41
2022-09-22T23:15:04.495Z,98080.56
2022-09-22T23:17:33.908Z,98064.00
2022-09-22T23:20:02.363Z,98084.22
2022-09-22T23:22:30.655Z,98064.31
2022-09-22T23:24:58.697Z,98084.06
2022-09-22T23:27:28.639Z,98055.53
2022-09-22T23:29:57.256Z,98087.84
2022-09-22T23:32:25.633Z,98050.06
2022-09-22T23:34:55.003Z,98063.13
2022-09-22T23:37:25.057Z,98049.72
2022-09-22T23:39:53.587Z,98063.78
2022-09-22T23:42:22.024Z,98051.03
2022-09-22T23:44:51.610Z,98043.75
2022-09-22T23:47:19.686Z,98039.75
2022-09-22T23:49:48.091Z,98066.28
2022-09-22T23:52:17.791Z,98055.69
2022-09-22T23:54:46.558Z,98062.97
2022-09-22T23:57:14.640Z,98046.88
2022-09-22T23:59:42.533Z,98052.69
